Gabes, Gabes Matmata International Airport (DTTG)

NameGabes Matmata International Airport
CityGabes
CountryTunisia
ICAODTTG
IATAGAE
Altitude8 m
CoordinatesGoogle Map
Live Air TrafficLiveATC.net
METARDTTG 110900Z 28005KT CAVOK 12/04 Q1024 NOSIG
2018-12-11 09:00:00 Wind: West (280°) 2.57 m/s - Visibility: > 10000 m - Weather: CAVOK - Temperature: 12 °C - Dew point: 4 °C - Humidity: 58.3% - Pressure: 1024 hPa
Statistics

The table below shows the detailed information of all flights to/from Gabes, Gabes Matmata International Airport (DTTG).